Time;durP1;ratioP1;P1;durP2;ratioP2;P2;SDS_P1;SDS_P2;PMS_P1;PMS_P2;Temp;Humidity;BMP_temperature;BMP_pressure;BME280_temperature;BME280_humidity;BME280_pressure;Samples;Min_cycle;Max_cycle;Signal;HPM_P1;HPM_P2
2022/09/23 00:01:46;;;;;;;14.23;9.90;;;;;;;9.17;100.00;101455.38;5066838;28;20088;-83
2022/09/23 00:04:13;;;;;;;24.90;9.25;;;;;;;9.16;100.00;101459.09;5054202;28;20097;-83
2022/09/23 00:06:43;;;;;;;19.27;8.93;;;;;;;9.17;100.00;101460.00;5078111;28;20042;-82
2022/09/23 00:09:10;;;;;;;24.42;10.25;;;;;;;9.19;100.00;101460.75;5059597;28;20116;-83
2022/09/23 00:11:40;;;;;;;22.27;9.82;;;;;;;9.22;100.00;101463.31;5060282;28;20032;-83
2022/09/23 00:14:05;;;;;;;16.02;8.48;;;;;;;9.21;100.00;101453.34;5043377;28;20039;-83
2022/09/23 00:16:33;;;;;;;19.00;8.90;;;;;;;9.24;100.00;101460.47;5024299;28;20040;-83
2022/09/23 00:19:01;;;;;;;14.07;9.20;;;;;;;9.25;100.00;101459.47;5030060;28;20037;-83
2022/09/23 00:21:39;;;;;;;20.65;9.00;;;;;;;9.23;100.00;101459.59;5048217;28;20029;-83
2022/09/23 00:24:06;;;;;;;14.43;9.02;;;;;;;9.29;100.00;101459.19;5044942;28;20040;-84
2022/09/23 00:26:32;;;;;;;14.10;8.68;;;;;;;9.22;100.00;101455.09;5032077;28;20032;-84
2022/09/23 00:29:02;;;;;;;19.50;9.10;;;;;;;9.23;100.00;101454.13;5046406;28;20043;-84
2022/09/23 00:31:34;;;;;;;15.00;8.60;;;;;;;9.16;100.00;101448.16;5055099;28;20032;-84
2022/09/23 00:34:09;;;;;;;22.38;8.40;;;;;;;9.16;100.00;101456.34;5044701;28;20299;-83
2022/09/23 00:36:39;;;;;;;15.40;8.50;;;;;;;9.16;100.00;101452.75;5047540;28;20044;-84
2022/09/23 00:39:08;;;;;;;11.10;7.72;;;;;;;9.22;100.00;101446.03;5044696;28;20033;-82
2022/09/23 00:41:34;;;;;;;15.63;8.48;;;;;;;9.30;100.00;101449.16;5060618;28;20072;-82
2022/09/23 00:44:41;;;;;;;12.60;7.78;;;;;;;9.35;100.00;101449.72;5033503;28;20115;-82
2022/09/23 00:47:41;;;;;;;16.17;7.70;;;;;;;9.41;100.00;101449.31;5049667;28;20117;-82
2022/09/23 00:50:11;;;;;;;12.10;7.78;;;;;;;9.45;100.00;101444.56;5075036;28;20029;-83
2022/09/23 00:52:40;;;;;;;16.55;9.48;;;;;;;9.48;100.00;101447.09;5055469;28;20032;-82
2022/09/23 00:55:24;;;;;;;21.45;8.27;;;;;;;9.50;100.00;101447.84;5050934;28;20037;-83
2022/09/23 00:58:00;;;;;;;11.07;7.80;;;;;;;9.48;100.00;101441.63;5054679;28;20040;-82
2022/09/23 01:00:28;;;;;;;10.10;7.45;;;;;;;9.52;100.00;101441.28;5064986;28;20439;-81
2022/09/23 01:03:01;;;;;;;13.35;8.18;;;;;;;9.49;100.00;101437.91;5031587;28;20040;-81
2022/09/23 01:05:32;;;;;;;15.32;7.72;;;;;;;9.54;100.00;101436.63;5048071;28;20043;-81
2022/09/23 01:08:01;;;;;;;13.63;8.05;;;;;;;9.52;100.00;101441.28;5065337;28;20051;-82
2022/09/23 01:10:41;;;;;;;11.07;7.82;;;;;;;9.60;100.00;101437.19;5067300;28;20020;-81
2022/09/23 01:13:31;;;;;;;12.15;6.97;;;;;;;9.68;100.00;101432.97;5080064;28;20076;-83
2022/09/23 01:16:12;;;;;;;13.48;7.93;;;;;;;9.64;100.00;101430.53;5064613;28;20020;-82
2022/09/23 01:18:44;;;;;;;12.50;7.50;;;;;;;9.50;100.00;101429.59;5062887;28;20020;-83
2022/09/23 01:21:28;;;;;;;12.68;7.88;;;;;;;9.34;100.00;101423.38;5060136;28;20059;-83
2022/09/23 01:24:16;;;;;;;16.58;8.05;;;;;;;9.18;100.00;101418.00;5074333;28;20090;-83
2022/09/23 01:27:10;;;;;;;15.40;7.63;;;;;;;9.10;100.00;101420.34;5063643;28;20028;-83
2022/09/23 01:30:08;;;;;;;14.23;7.85;;;;;;;9.15;100.00;101421.84;5082422;28;20055;-82
2022/09/23 01:33:08;;;;;;;13.93;8.00;;;;;;;9.17;100.00;101421.75;5059649;28;20025;-83
2022/09/23 01:35:55;;;;;;;12.90;8.35;;;;;;;9.09;100.00;101413.16;5045926;28;20024;-82
2022/09/23 01:38:43;;;;;;;13.02;9.13;;;;;;;9.11;100.00;101417.53;5079801;28;20020;-82
2022/09/23 01:41:42;;;;;;;11.45;8.05;;;;;;;9.07;100.00;101415.09;5053453;28;20052;-82
2022/09/23 01:44:32;;;;;;;15.68;8.65;;;;;;;9.00;100.00;101423.69;5048047;28;20060;-82
2022/09/23 01:47:10;;;;;;;12.88;8.27;;;;;;;9.00;100.00;101417.34;5063458;28;20072;-82
2022/09/23 01:49:57;;;;;;;17.02;9.25;;;;;;;8.99;100.00;101419.19;5074396;28;20027;-82
2022/09/23 01:52:31;;;;;;;12.10;7.70;;;;;;;8.93;100.00;101410.50;5063335;28;20032;-81
2022/09/23 01:55:14;;;;;;;13.75;8.25;;;;;;;8.94;100.00;101415.88;5078313;28;20034;-82
2022/09/23 01:58:00;;;;;;;11.15;8.35;;;;;;;8.86;100.00;101404.56;5071948;28;20043;-82
2022/09/23 02:00:33;;;;;;;10.88;7.22;;;;;;;8.82;100.00;101405.72;5064330;28;20198;-82
2022/09/23 02:03:14;;;;;;;16.20;8.30;;;;;;;8.84;100.00;101401.06;5062807;28;20035;-82
2022/09/23 02:05:52;;;;;;;11.38;8.00;;;;;;;8.90;100.00;101408.84;5047927;28;20048;-82
2022/09/23 02:08:42;;;;;;;14.48;8.07;;;;;;;8.92;100.00;101411.47;5080329;28;20115;-82
2022/09/23 02:11:14;;;;;;;14.25;8.60;;;;;;;8.83;100.00;101415.69;5060711;28;20037;-83
2022/09/23 02:13:57;;;;;;;14.43;8.43;;;;;;;8.80;100.00;101394.03;5079825;28;20431;-83
2022/09/23 02:16:32;;;;;;;14.40;8.15;;;;;;;8.94;100.00;101395.91;5087383;28;20084;-83
2022/09/23 02:19:13;;;;;;;11.00;7.80;;;;;;;8.89;100.00;101398.91;5062244;28;20032;-83
2022/09/23 02:21:54;;;;;;;12.13;8.23;;;;;;;8.89;100.00;101401.66;5062809;28;20063;-83
2022/09/23 02:24:26;;;;;;;18.02;9.20;;;;;;;8.93;100.00;101389.53;5050106;28;20557;-82
2022/09/23 02:26:53;;;;;;;12.85;8.43;;;;;;;8.97;100.00;101388.38;5044551;28;20033;-82
2022/09/23 02:29:30;;;;;;;10.05;7.68;;;;;;;8.96;100.00;101402.13;5065141;28;20027;-82
2022/09/23 02:32:19;;;;;;;12.85;8.25;;;;;;;8.98;100.00;101384.66;5075147;28;20040;-83
2022/09/23 02:35:03;;;;;;;12.95;8.63;;;;;;;9.04;100.00;101396.19;5063768;28;20024;-84
2022/09/23 02:38:07;;;;;;;18.45;8.00;;;;;;;9.06;100.00;101386.91;5072759;28;20035;-83
2022/09/23 02:40:40;;;;;;;11.10;7.85;;;;;;;9.07;100.00;101388.66;5065137;28;20136;-82
2022/09/23 02:43:20;;;;;;;14.15;8.18;;;;;;;9.02;100.00;101385.34;5050192;28;20037;-83
2022/09/23 02:45:49;;;;;;;11.68;7.78;;;;;;;9.07;100.00;101379.56;5078009;28;20039;-83
2022/09/23 02:48:45;;;;;;;19.63;7.80;;;;;;;9.06;100.00;101380.56;5057525;28;20020;-83
2022/09/23 02:51:12;;;;;;;9.60;7.60;;;;;;;9.06;100.00;101380.56;5071830;28;20028;-82
2022/09/23 02:53:41;;;;;;;9.90;7.85;;;;;;;9.13;100.00;101376.44;5061599;28;20040;-82
2022/09/23 02:56:19;;;;;;;16.02;7.70;;;;;;;9.16;100.00;101379.00;5064843;28;20033;-83
2022/09/23 02:58:53;;;;;;;9.85;6.78;;;;;;;9.16;100.00;101370.78;5055342;28;20036;-83
2022/09/23 03:01:55;;;;;;;13.10;7.35;;;;;;;9.16;100.00;101370.78;5048643;28;20032;-83
2022/09/23 03:04:46;;;;;;;17.05;7.13;;;;;;;9.15;100.00;101366.28;5062193;28;20029;-82
2022/09/23 03:07:22;;;;;;;12.45;7.28;;;;;;;9.22;100.00;101361.34;5063338;28;20387;-81
2022/09/23 03:10:08;;;;;;;14.20;7.03;;;;;;;9.25;100.00;101351.09;5077439;28;20032;-81
2022/09/23 03:12:46;;;;;;;14.35;7.22;;;;;;;9.30;100.00;101348.91;5072428;28;20029;-82
2022/09/23 03:15:34;;;;;;;13.70;6.70;;;;;;;9.25;100.00;101353.81;5061412;28;20037;-83
2022/09/23 03:18:19;;;;;;;9.13;6.70;;;;;;;9.17;100.00;101343.38;5075495;28;20064;-83
2022/09/23 03:21:02;;;;;;;12.88;6.88;;;;;;;9.15;100.00;101348.06;5061718;28;20039;-82
2022/09/23 03:23:36;;;;;;;9.85;6.70;;;;;;;9.10;100.00;101342.03;5062057;28;20345;-82
2022/09/23 03:26:12;;;;;;;10.43;6.93;;;;;;;9.11;100.00;101345.63;5061636;28;20023;-82
2022/09/23 03:28:42;;;;;;;11.40;7.05;;;;;;;8.97;100.00;101341.09;5062202;28;20058;-82
2022/09/23 03:31:14;;;;;;;9.13;6.90;;;;;;;8.97;100.00;101336.50;5036091;28;20025;-82
2022/09/23 03:33:46;;;;;;;13.00;6.72;;;;;;;8.98;100.00;101335.50;5079277;28;20443;-83
2022/09/23 03:39:11;;;;;;;13.90;7.50;;;;;;;8.90;100.00;101329.66;5055856;28;20037;-83
2022/09/23 03:41:51;;;;;;;10.55;7.25;;;;;;;8.87;100.00;101329.88;5066655;28;20049;-83
2022/09/23 03:44:18;;;;;;;9.65;6.90;;;;;;;8.74;100.00;101326.16;5061846;28;20459;-84
2022/09/23 03:46:48;;;;;;;11.43;7.03;;;;;;;8.73;100.00;101321.69;5044469;28;20130;-83
2022/09/23 03:49:23;;;;;;;14.30;7.53;;;;;;;8.78;100.00;101330.44;5054484;28;20491;-83
2022/09/23 03:51:50;;;;;;;15.13;7.28;;;;;;;8.71;100.00;101312.72;5076804;28;20028;-83
2022/09/23 03:54:18;;;;;;;12.60;7.32;;;;;;;8.79;100.00;101318.56;5010372;28;20041;-83
2022/09/23 03:56:49;;;;;;;10.55;7.05;;;;;;;8.68;100.00;101310.19;5020428;28;20097;-83
2022/09/23 03:59:15;;;;;;;10.32;7.07;;;;;;;8.44;100.00;101298.00;5078101;28;20036;-83
2022/09/23 04:01:42;;;;;;;11.43;7.38;;;;;;;8.59;100.00;101311.63;5064039;28;20073;-84
2022/09/23 04:04:10;;;;;;;15.38;7.10;;;;;;;8.54;100.00;101313.78;5031420;28;20047;-82
2022/09/23 04:06:42;;;;;;;11.60;6.93;;;;;;;8.57;100.00;101319.91;5066391;28;20386;-83
2022/09/23 04:09:08;;;;;;;14.23;6.88;;;;;;;8.54;100.00;101321.97;5024749;28;20052;-83
2022/09/23 04:11:35;;;;;;;12.90;6.43;;;;;;;8.49;100.00;101321.38;5059417;28;20051;-83
2022/09/23 04:14:05;;;;;;;8.50;6.72;;;;;;;8.46;100.00;101326.06;5048838;28;20031;-83
2022/09/23 04:16:36;;;;;;;9.93;6.57;;;;;;;8.41;100.00;101321.81;5053887;28;20028;-83
2022/09/23 04:19:11;;;;;;;10.60;6.88;;;;;;;8.38;100.00;101317.44;5054426;28;20029;-83
2022/09/23 04:21:38;;;;;;;11.85;6.75;;;;;;;8.29;100.00;101327.06;5059692;28;20040;-83
2022/09/23 04:24:08;;;;;;;16.75;6.35;;;;;;;8.28;100.00;101321.72;5053216;28;20045;-84
2022/09/23 04:26:39;;;;;;;9.95;7.20;;;;;;;8.32;100.00;101317.81;5056488;28;20033;-81
2022/09/23 04:29:06;;;;;;;14.15;6.90;;;;;;;8.27;100.00;101322.69;5061548;28;20024;-83
2022/09/23 04:31:35;;;;;;;8.07;6.45;;;;;;;8.06;100.00;101303.94;5044148;28;20048;-83
2022/09/23 04:34:06;;;;;;;11.93;7.07;;;;;;;8.20;100.00;101324.94;5089707;28;20040;-83
2022/09/23 04:36:35;;;;;;;14.82;7.53;;;;;;;8.12;100.00;101310.88;5032728;28;20032;-84
2022/09/23 04:39:08;;;;;;;10.98;7.05;;;;;;;8.10;100.00;101316.44;5060590;28;20047;-83
2022/09/23 04:41:40;;;;;;;9.43;7.10;;;;;;;8.13;100.00;101309.03;5030259;28;20045;-82
2022/09/23 04:44:06;;;;;;;11.20;7.30;;;;;;;8.13;100.00;101312.63;5049293;28;20111;-82
2022/09/23 04:46:32;;;;;;;13.30;7.22;;;;;;;8.20;100.00;101307.66;5059344;28;20052;-80
2022/09/23 04:49:06;;;;;;;13.23;6.93;;;;;;;8.21;100.00;101306.69;5066319;28;20061;-82
2022/09/23 04:51:32;;;;;;;10.82;7.25;;;;;;;8.28;100.00;101313.56;5075883;28;20503;-81
2022/09/23 04:54:04;;;;;;;11.52;6.90;;;;;;;8.22;100.00;101312.06;5068033;28;20392;-81
2022/09/23 04:56:31;;;;;;;9.45;6.90;;;;;;;8.16;100.00;101304.25;5061807;28;20039;-83
2022/09/23 04:59:07;;;;;;;12.20;7.78;;;;;;;8.27;100.00;101309.06;5057920;28;20078;-83
2022/09/23 05:01:35;;;;;;;11.77;6.95;;;;;;;8.25;100.00;101303.69;5048226;28;20125;-83
2022/09/23 05:04:09;;;;;;;8.57;6.23;;;;;;;8.25;100.00;101313.75;5053049;28;20037;-83
2022/09/23 05:06:43;;;;;;;21.02;6.93;;;;;;;8.32;100.00;101314.22;5042752;28;20115;-83
2022/09/23 05:09:18;;;;;;;9.82;7.15;;;;;;;8.36;100.00;101310.31;5067092;28;20041;-83
2022/09/23 05:11:45;;;;;;;8.98;6.65;;;;;;;8.28;100.00;101305.38;5084447;28;20036;-83
2022/09/23 05:14:12;;;;;;;7.93;6.00;;;;;;;8.32;100.00;101306.91;5031386;28;20033;-83
2022/09/23 05:16:38;;;;;;;12.23;6.43;;;;;;;8.38;100.00;101311.09;5034721;28;20033;-83
2022/09/23 05:19:07;;;;;;;13.15;6.82;;;;;;;8.36;100.00;101304.88;5060268;28;20487;-83
2022/09/23 05:21:33;;;;;;;13.00;6.88;;;;;;;8.33;100.00;101305.94;5048819;28;20028;-83
2022/09/23 05:24:01;;;;;;;14.30;6.53;;;;;;;8.22;100.00;101308.47;5062469;28;20040;-83
2022/09/23 05:26:30;;;;;;;8.55;6.22;;;;;;;8.09;100.00;101297.44;5053993;28;20119;-82
2022/09/23 05:28:57;;;;;;;14.82;6.88;;;;;;;8.06;100.00;101303.94;5061807;28;20035;-83
2022/09/23 05:31:27;;;;;;;14.27;6.53;;;;;;;8.04;100.00;101311.34;5050327;28;20080;-83
2022/09/23 05:34:01;;;;;;;9.95;6.38;;;;;;;7.97;100.00;101295.44;5056105;28;20051;-82
2022/09/23 05:36:29;;;;;;;10.23;6.93;;;;;;;7.99;100.00;101307.16;5061975;28;20120;-82
2022/09/23 05:38:58;;;;;;;12.40;6.28;;;;;;;7.98;100.00;101306.25;5069536;28;20076;-81
2022/09/23 05:41:25;;;;;;;12.63;7.07;;;;;;;8.03;100.00;101309.56;5066826;28;20032;-81
2022/09/23 05:43:52;;;;;;;11.32;6.88;;;;;;;8.06;100.00;101317.56;5098385;28;20037;-81
2022/09/23 05:46:26;;;;;;;10.02;6.70;;;;;;;8.13;100.00;101309.03;5050588;28;20061;-81
2022/09/23 05:48:57;;;;;;;13.23;6.32;;;;;;;8.20;100.00;101316.75;5075670;28;20009;-80
2022/09/23 05:51:25;;;;;;;11.77;7.18;;;;;;;8.25;100.00;101330.97;5082492;28;20005;-82
2022/09/23 05:53:52;;;;;;;13.27;6.80;;;;;;;8.26;100.00;101324.56;5067999;28;20031;-81
2022/09/23 05:56:27;;;;;;;16.83;7.18;;;;;;;8.36;100.00;101321.22;5083964;28;20115;-82
2022/09/23 05:58:58;;;;;;;12.32;6.80;;;;;;;8.40;100.00;101323.69;5063046;28;20024;-82
2022/09/23 06:01:27;;;;;;;10.02;6.65;;;;;;;8.54;100.00;101333.75;5049210;28;20024;-83
2022/09/23 06:03:58;;;;;;;10.93;6.75;;;;;;;8.50;100.00;101320.41;5046630;28;20028;-83
2022/09/23 06:06:36;;;;;;;12.05;6.80;;;;;;;8.63;100.00;101332.31;5042122;28;20482;-83
2022/09/23 06:09:03;;;;;;;15.43;7.38;;;;;;;8.66;100.00;101326.66;5044366;28;20025;-82
2022/09/23 06:11:33;;;;;;;11.82;7.05;;;;;;;8.70;100.00;101321.88;5031906;28;20048;-83
2022/09/23 06:14:02;;;;;;;13.25;7.32;;;;;;;8.76;100.00;101321.50;5061890;28;20033;-83
2022/09/23 06:16:34;;;;;;;9.90;6.57;;;;;;;8.77;100.00;101315.03;5043036;28;20033;-85
2022/09/23 06:19:04;;;;;;;9.10;7.03;;;;;;;8.81;100.00;101311.16;5071267;28;20096;-83
2022/09/23 06:21:31;;;;;;;13.18;7.70;;;;;;;9.00;100.00;101324.47;5043784;28;20032;-82
2022/09/23 06:24:10;;;;;;;12.27;6.55;;;;;;;9.05;100.00;101324.19;5048047;28;20036;-82
2022/09/23 06:26:37;;;;;;;13.30;7.60;;;;;;;9.17;100.00;101317.91;5058982;28;20029;-83
2022/09/23 06:29:08;;;;;;;9.88;7.68;;;;;;;9.25;100.00;101325.59;5081404;28;20039;-82
2022/09/23 06:31:40;;;;;;;11.48;7.47;;;;;;;9.23;100.00;101314.78;5101215;28;20034;-83
2022/09/23 06:34:12;;;;;;;11.48;7.65;;;;;;;9.27;100.00;101319.06;5039314;28;20028;-83
2022/09/23 06:36:41;;;;;;;10.68;6.90;;;;;;;9.31;100.00;101317.00;5070492;28;20035;-84
2022/09/23 06:39:23;;;;;;;;;;;;;;;9.30;100.00;101316.13;5051593;28;20077;-83
2022/09/23 06:41:53;;;;;;;10.20;6.95;;;;;;;9.35;100.00;101305.75;5063979;28;20414;-84
2022/09/23 06:44:24;;;;;;;13.82;7.10;;;;;;;9.45;100.00;101314.22;5046009;28;20041;-81
2022/09/23 06:46:51;;;;;;;15.02;7.72;;;;;;;9.58;100.00;101322.47;5010472;28;20060;-84
2022/09/23 06:49:19;;;;;;;15.00;8.43;;;;;;;9.56;100.00;101310.78;5031772;28;20036;-82
2022/09/23 06:51:46;;;;;;;9.48;6.97;;;;;;;9.52;100.00;101296.41;5014871;28;20033;-85
2022/09/23 06:54:21;;;;;;;14.95;7.95;;;;;;;9.66;100.00;101314.63;5062300;28;20044;-82
2022/09/23 06:56:50;;;;;;;10.15;7.03;;;;;;;9.58;100.00;101308.81;5045348;28;20530;-83
2022/09/23 06:59:23;;;;;;;13.63;8.10;;;;;;;9.69;100.00;101321.72;5061120;28;20063;-81
2022/09/23 07:01:57;;;;;;;12.50;6.90;;;;;;;9.71;100.00;101326.13;5072781;28;20058;-81
2022/09/23 07:04:27;;;;;;;13.48;6.72;;;;;;;9.88;100.00;101327.69;5043284;28;20035;-81
2022/09/23 07:06:53;;;;;;;14.70;6.90;;;;;;;9.87;100.00;101320.50;5061273;28;20040;-81
2022/09/23 07:09:20;;;;;;;11.32;6.78;;;;;;;9.92;100.00;101322.91;5075659;28;20028;-81
2022/09/23 07:11:48;;;;;;;16.10;7.07;;;;;;;9.90;100.00;101322.13;5059137;28;20135;-82
2022/09/23 07:14:15;;;;;;;11.73;6.53;;;;;;;9.91;100.00;101316.56;5059937;28;20024;-82
2022/09/23 07:16:43;;;;;;;14.07;7.32;;;;;;;9.92;100.00;101322.91;5042792;28;20036;-82
2022/09/23 07:19:14;;;;;;;15.63;6.68;;;;;;;10.07;100.00;101324.59;5041214;28;20044;-82
2022/09/23 07:21:46;;;;;;;11.60;6.43;;;;;;;10.08;100.00;101325.44;5046524;28;20111;-81
2022/09/23 07:24:12;;;;;;;12.80;7.60;;;;;;;10.18;100.00;101331.16;5078387;28;20052;-81
2022/09/23 07:26:42;;;;;;;9.32;6.78;;;;;;;10.24;100.00;101320.66;5075938;28;20552;-81
2022/09/23 07:29:19;;;;;;;17.10;6.18;;;;;;;10.30;100.00;101316.63;5030845;28;20032;-81
2022/09/23 07:31:44;;;;;;;11.90;6.45;;;;;;;10.41;100.00;101321.34;5041128;28;20052;-81
2022/09/23 07:34:18;;;;;;;12.32;6.93;;;;;;;10.54;100.00;101313.16;5035886;28;20402;-82
2022/09/23 07:36:48;;;;;;;11.68;6.80;;;;;;;10.70;100.00;101304.72;5062103;28;20037;-81
2022/09/23 07:39:13;;;;;;;11.20;6.65;;;;;;;10.85;100.00;101315.44;5044400;28;20039;-81
2022/09/23 07:41:43;;;;;;;11.27;6.32;;;;;;;10.91;100.00;101318.72;5061312;28;20106;-81
2022/09/23 07:44:12;;;;;;;15.23;7.13;;;;;;;11.12;100.00;101314.38;5059789;28;20078;-81
2022/09/23 07:46:42;;;;;;;17.20;6.30;;;;;;;11.13;100.00;101312.50;5055251;28;20032;-81
2022/09/23 07:49:14;;;;;;;9.10;6.40;;;;;;;11.41;100.00;101316.78;5062390;28;20029;-82
2022/09/23 07:51:45;;;;;;;13.43;6.55;;;;;;;11.62;100.00;101318.91;5030775;28;20078;-81
2022/09/23 07:54:15;;;;;;;17.77;6.93;;;;;;;11.75;100.00;101328.81;5046158;28;20406;-82
2022/09/23 07:56:45;;;;;;;12.65;6.30;;;;;;;11.88;100.00;101312.28;5061742;28;20085;-82
2022/09/23 07:59:17;;;;;;;10.43;6.70;;;;;;;12.19;100.00;101318.16;5062581;28;20036;-81
2022/09/23 08:01:47;;;;;;;14.05;5.93;;;;;;;12.27;100.00;101309.34;5063616;28;20055;-82
2022/09/23 08:04:28;;;;;;;7.63;6.25;;;;;;;12.38;100.00;101316.72;5079150;28;20047;-81
2022/09/23 08:06:56;;;;;;;16.48;6.53;;;;;;;12.34;100.00;101315.22;5061695;28;20447;-82
2022/09/23 08:09:32;;;;;;;12.50;6.72;;;;;;;12.33;100.00;101311.59;5081047;28;20052;-81
2022/09/23 08:11:59;;;;;;;12.80;6.75;;;;;;;12.58;100.00;101310.50;5080645;28;20054;-81
2022/09/23 08:14:26;;;;;;;13.40;6.30;;;;;;;13.00;100.00;101312.63;5061748;28;20025;-81
2022/09/23 08:16:52;;;;;;;16.30;6.38;;;;;;;13.16;100.00;101321.34;5062071;28;20078;-81
2022/09/23 08:19:19;;;;;;;13.40;6.00;;;;;;;13.17;100.00;101314.88;5061504;28;20079;-81
2022/09/23 08:22:01;;;;;;;10.73;5.95;;;;;;;12.95;100.00;101317.63;5080520;28;20035;-81
2022/09/23 08:24:31;;;;;;;14.30;6.47;;;;;;;12.96;100.00;101317.50;5061852;28;20028;-81
2022/09/23 08:26:56;;;;;;;12.07;7.80;;;;;;;12.96;100.00;101324.88;5061577;28;20043;-81
2022/09/23 08:29:28;;;;;;;15.00;6.53;;;;;;;13.08;100.00;101325.75;5029946;28;20033;-81
2022/09/23 08:31:54;;;;;;;14.23;6.40;;;;;;;12.99;100.00;101327.41;5062741;28;20039;-81
2022/09/23 08:34:28;;;;;;;12.05;6.55;;;;;;;12.98;100.00;101325.63;5031224;28;20037;-81
2022/09/23 08:36:57;;;;;;;10.10;6.75;;;;;;;12.98;100.00;101328.38;5029520;28;20443;-81
2022/09/23 08:39:24;;;;;;;12.60;6.80;;;;;;;13.21;100.00;101332.84;5029702;28;20036;-81
2022/09/23 08:42:16;;;;;;;11.93;5.85;;;;;;;13.16;100.00;101328.75;5056796;28;20496;-81
2022/09/23 08:44:49;;;;;;;10.10;6.60;;;;;;;13.15;100.00;101327.88;5063340;28;20025;-81
2022/09/23 08:47:42;;;;;;;18.90;6.95;;;;;;;13.22;100.00;101318.09;5080260;28;20074;-82
2022/09/23 08:50:28;;;;;;;14.60;6.70;;;;;;;13.31;100.00;101323.84;5061576;28;20151;-81
2022/09/23 08:53:03;;;;;;;13.52;7.07;;;;;;;13.24;100.00;101324.34;5061755;28;20060;-81
2022/09/23 08:55:36;;;;;;;14.18;5.97;;;;;;;13.33;100.00;101319.13;5062015;28;20028;-81
2022/09/23 08:58:23;;;;;;;11.63;6.53;;;;;;;13.39;100.00;101326.84;5051883;28;20040;-81
2022/09/23 09:01:20;;;;;;;14.32;6.53;;;;;;;13.45;100.00;101320.84;5040190;28;20029;-81
2022/09/23 09:03:54;;;;;;;14.05;6.15;;;;;;;13.57;100.00;101325.31;5045538;28;20070;-81
2022/09/23 09:06:39;;;;;;;13.27;6.95;;;;;;;13.73;100.00;101326.78;5041686;28;20029;-81
2022/09/23 09:09:17;;;;;;;15.98;5.93;;;;;;;13.72;100.00;101323.13;5057931;28;20033;-81
2022/09/23 09:11:47;;;;;;;15.68;6.25;;;;;;;13.76;100.00;101316.38;5058320;28;20051;-81
2022/09/23 09:14:29;;;;;;;9.75;6.38;;;;;;;13.87;100.00;101328.34;5053038;28;20171;-82
2022/09/23 09:17:06;;;;;;;11.70;6.00;;;;;;;13.89;100.00;101326.34;5044545;28;20039;-82
2022/09/23 09:20:03;;;;;;;11.63;6.35;;;;;;;14.08;100.00;101322.88;5043364;28;20085;-81
2022/09/23 09:22:37;;;;;;;10.90;6.15;;;;;;;14.36;100.00;101323.22;5060168;28;20056;-81
2022/09/23 09:25:43;;;;;;;11.63;6.30;;;;;;;14.28;100.00;101312.84;5057951;28;20384;-81
2022/09/23 09:28:29;;;;;;;15.45;5.85;;;;;;;14.66;100.00;101322.44;5048475;28;20065;-81
2022/09/23 09:31:20;;;;;;;22.23;8.18;;;;;;;14.78;100.00;101315.81;5056552;28;20021;-82
2022/09/23 09:34:33;;;;;;;13.85;6.40;;;;;;;14.86;100.00;101321.50;5041508;28;20489;-82
2022/09/23 09:37:14;;;;;;;10.20;5.35;;;;;;;15.01;100.00;101313.72;5064987;28;20025;-82
2022/09/23 09:39:40;;;;;;;10.80;5.70;;;;;;;15.37;100.00;101311.38;5038576;28;20097;-81
2022/09/23 09:42:06;;;;;;;11.55;5.97;;;;;;;15.62;100.00;101296.16;5022739;28;20468;-81
2022/09/23 09:44:57;;;;;;;13.90;5.55;;;;;;;15.95;100.00;101298.66;5023134;28;20033;-81
2022/09/23 09:47:45;;;;;;;19.83;5.95;;;;;;;15.94;100.00;101294.19;5044340;28;20067;-82
2022/09/23 09:50:44;;;;;;;8.13;5.53;;;;;;;16.15;100.00;101299.53;5044295;28;20024;-81
2022/09/23 09:53:21;;;;;;;10.60;5.55;;;;;;;16.31;100.00;101288.72;5079618;28;20035;-81
2022/09/23 09:56:05;;;;;;;15.07;5.60;;;;;;;16.19;100.00;101283.56;5062669;28;20029;-81
2022/09/23 09:58:43;;;;;;;10.48;5.35;;;;;;;16.45;100.00;101278.25;5061894;28;20052;-82
2022/09/23 10:01:28;;;;;;;19.23;6.38;;;;;;;16.49;100.00;101275.03;5042658;28;20035;-82
2022/09/23 10:04:37;;;;;;;11.55;5.25;;;;;;;16.81;100.00;101278.44;5046272;28;20040;-82
2022/09/23 10:07:14;;;;;;;11.25;5.30;;;;;;;17.00;100.00;101277.50;5060109;28;20029;-84
2022/09/23 10:09:50;;;;;;;12.32;4.95;;;;;;;17.00;100.00;101274.72;5044227;28;20035;-83
2022/09/23 10:12:25;;;;;;;9.73;5.20;;;;;;;17.00;100.00;101274.72;5060704;28;20437;-84
2022/09/23 10:14:56;;;;;;;11.68;5.43;;;;;;;16.88;100.00;101283.22;5063469;28;20025;-83
2022/09/23 10:17:24;;;;;;;12.73;4.97;;;;;;;17.17;100.00;101271.13;5063309;28;20024;-83
2022/09/23 10:20:00;;;;;;;12.07;5.22;;;;;;;17.12;100.00;101280.91;5062994;28;20033;-83
2022/09/23 10:22:41;;;;;;;12.23;5.55;;;;;;;17.31;100.00;101275.28;5079958;28;20036;-83
2022/09/23 10:25:19;;;;;;;9.70;5.50;;;;;;;17.33;100.00;101269.56;5064486;28;20063;-82
2022/09/23 10:27:46;;;;;;;15.82;5.82;;;;;;;17.27;100.00;101277.47;5079100;28;20056;-81
2022/09/23 10:30:25;;;;;;;13.45;6.47;;;;;;;17.25;100.00;101278.69;5060906;28;20029;-80
2022/09/23 10:33:25;;;;;;;19.27;6.07;;;;;;;17.40;100.00;101273.47;5076848;28;20029;-81
2022/09/23 10:36:01;;;;;;;11.70;6.32;;;;;;;17.24;100.00;101271.38;5061944;28;20055;-80
2022/09/23 10:38:32;;;;;;;14.60;5.72;;;;;;;17.30;100.00;101275.41;5047001;28;20115;-81
2022/09/23 10:47:53;;;;;;;11.63;5.47;;;;;;;17.55;100.00;101280.22;5078072;28;20036;-81
2022/09/23 10:50:34;;;;;;;8.00;5.30;;;;;;;17.74;100.00;101272.78;5077666;28;20037;-81
2022/09/23 10:53:11;;;;;;;11.57;4.90;;;;;;;17.38;100.00;101273.63;5061652;28;20601;-81
2022/09/23 10:56:03;;;;;;;7.97;4.28;;;;;;;17.45;100.00;101279.41;5063198;28;20008;-81
2022/09/23 10:59:03;;;;;;;9.88;4.60;;;;;;;17.36;100.00;101280.34;5074268;28;20027;-81
2022/09/23 11:01:40;;;;;;;8.45;4.25;;;;;;;17.17;100.00;101284.13;5044340;28;20481;-81
2022/09/23 11:04:37;;;;;;;5.60;4.28;;;;;;;17.21;100.00;101277.22;5056617;28;20033;-81
2022/09/23 11:07:26;;;;;;;7.20;5.03;;;;;;;17.51;100.00;101275.13;5059371;28;20431;-81
2022/09/23 11:10:37;;;;;;;9.57;5.20;;;;;;;17.29;100.00;101266.25;5076627;28;20160;-82
2022/09/23 11:13:34;;;;;;;9.60;4.90;;;;;;;17.55;100.00;101266.38;5062224;28;20124;-81
2022/09/23 11:16:26;;;;;;;6.22;4.30;;;;;;;17.57;100.00;101258.78;5061572;28;20032;-81
2022/09/23 11:19:33;;;;;;;10.57;4.50;;;;;;;17.59;100.00;101261.38;5058177;28;20055;-82
2022/09/23 11:22:35;;;;;;;6.68;4.70;;;;;;;17.61;100.00;101257.44;5058472;28;20060;-81
2022/09/23 11:25:29;;;;;;;8.43;4.57;;;;;;;17.75;100.00;101256.00;5058102;28;20039;-82
2022/09/23 11:28:22;;;;;;;11.23;5.25;;;;;;;17.75;100.00;101261.53;5042113;28;20025;-82
2022/09/23 11:31:24;;;;;;;5.10;4.47;;;;;;;17.95;100.00;101253.94;5057772;28;20127;-82
2022/09/23 11:34:03;;;;;;;5.50;4.50;;;;;;;17.92;100.00;101253.41;5058704;28;20043;-82
2022/09/23 11:36:55;;;;;;;7.68;4.07;;;;;;;17.89;100.00;101248.19;5057579;28;20035;-80
2022/09/23 11:39:53;;;;;;;5.78;3.63;;;;;;;18.12;100.00;101249.44;5057268;28;20159;-81
2022/09/23 11:42:26;;;;;;;5.75;3.67;;;;;;;18.11;100.00;101246.81;5063827;28;20033;-81
2022/09/23 11:45:25;;;;;;;9.52;3.63;;;;;;;17.93;100.00;101246.84;5078683;28;20027;-81
2022/09/23 11:48:17;;;;;;;7.03;3.25;;;;;;;17.98;100.00;101241.69;5057774;28;20040;-82
2022/09/23 11:50:55;;;;;;;6.57;3.67;;;;;;;17.93;100.00;101233.00;5070372;28;20028;-82
2022/09/23 11:53:42;;;;;;;5.65;3.25;;;;;;;18.13;100.00;101228.13;5074509;28;20032;-81
2022/09/23 11:56:11;;;;;;;5.22;3.13;;;;;;;18.39;100.00;101230.91;5079362;28;20494;-79
2022/09/23 11:59:06;;;;;;;8.52;3.80;;;;;;;18.36;100.00;101228.44;5070754;28;20139;-79
2022/09/23 12:01:46;;;;;;;4.40;3.30;;;;;;;18.32;100.00;101218.75;5061198;28;20048;-80
2022/09/23 12:04:39;;;;;;;6.53;3.05;;;;;;;18.54;100.00;101223.72;5077954;28;20043;-81
2022/09/23 12:07:19;;;;;;;7.78;3.20;;;;;;;18.35;98.12;101210.97;5079255;28;20025;-80
2022/09/23 12:10:02;;;;;;;5.63;2.67;;;;;;;18.52;100.00;101217.47;5071713;28;20506;-81